KONL

The O'neill Municipal-John L Baker Field Airport

O'neill, Nebraska, USA
METAR KONL 201735Z AUTO 35017G21KT 10SM CLR 11/M01 A3040 RMK AO2 T01081013
Observed Flight Rules
Oct-20 @ 17:35 UTC (25 minutes ago) Visual Flight Rules
Wind Visibility Clouds
350° at 17 knots
 Gusting to 21 knots
10 miles
  • Clear skies
Temperatures Readings
Current 11°C / 52°F
Dewpoint -1°C / 30°F
Humidity 44%
Altimeter 30.4" Hg
Pressure 1029 hPa
Elevation 619
METAR KONL 201735Z AUTO 35017G21KT 10SM CLR 11/M01 A3040 RMK AO2 T01081013
Observed Flight Rules
Oct-20 @ 17:35 UTC
(25 minutes ago)
VFR
Wind Visibility
350° at 17 knots
 Gusting to 21 knots
10 miles
Clouds
  • Clear skies
Temperature Dewpoint
11°C / 52°F -1°C / 30°F
Humidity Altimeter Pressure
44% 30.4" Hg 1029 hPa